Terminal Aerodrome Forecast
Issued by NWS

Home | Current Version | Previous Version | Text Only | Print | Product List | Glossary On
Versions: 1 2 3 4 5 6 7 8 9 10 11 12 13 14 15 16 17 18 19 20 21 22
000
FTUS43 KABR 230400 AAA
TAFPIR
TAF AMD
KPIR 230440Z 2305/2324 07012G20KT P6SM BKN045 OVC050
     FM230900 08009KT P6SM VCTS BKN060CB
      TEMPO 2309/2312 4SM SHRA BR OVC010
     FM231200 05009KT 3SM SHRA BR OVC008
     FM231800 08013KT P6SM VCSH BKN020 OVC050
     FM232300 09013KT P6SM VCTS BKN050CB=

USA.gov is the U.S. government's official web portal to all federal, state and local government web resources and services.